Time;durP1;ratioP1;P1;durP2;ratioP2;P2;SDS_P1;SDS_P2;PMS_P1;PMS_P2;Temp;Humidity;BMP_temperature;BMP_pressure;BME280_temperature;BME280_humidity;BME280_pressure;Samples;Min_cycle;Max_cycle;Signal;HPM_P1;HPM_P2
2022/03/24 00:00:45;;;;;;;7.75;4.97;;;2.20;77.00;1.80;98830.00;;;;4883269;28;92528;-67
2022/03/24 00:03:11;;;;;;;8.98;5.53;;;2.20;77.00;1.80;98820.00;;;;4893124;28;92158;-65
2022/03/24 00:05:37;;;;;;;10.10;5.13;;;2.20;77.00;1.80;98818.00;;;;4887188;28;92624;-65
2022/03/24 00:08:06;;;;;;;9.75;5.13;;;2.10;76.30;1.80;98817.00;;;;4888532;28;92544;-65
2022/03/24 00:10:32;;;;;;;11.25;5.00;;;2.20;76.10;1.80;98804.00;;;;4894589;28;92366;-65
2022/03/24 00:12:59;;;;;;;9.95;5.45;;;2.10;76.20;1.80;98810.00;;;;4874671;28;91384;-65
2022/03/24 00:15:25;;;;;;;9.80;5.72;;;2.10;76.90;1.70;98809.00;;;;4891232;28;92712;-64
2022/03/24 00:17:52;;;;;;;10.63;5.68;;;2.00;77.70;1.70;98801.00;;;;4887827;28;94651;-65
2022/03/24 00:20:19;;;;;;;8.73;5.43;;;2.00;77.80;1.70;98802.00;;;;4900699;28;93048;-64
2022/03/24 00:22:46;;;;;;;8.98;5.80;;;2.00;77.60;1.70;98792.00;;;;4889037;28;92162;-61
2022/03/24 00:25:12;;;;;;;11.10;5.00;;;2.00;77.80;1.60;98804.00;;;;4881630;28;92591;-61
2022/03/24 00:27:40;;;;;;;8.75;4.65;;;1.90;77.50;1.70;98780.00;;;;4881782;28;95771;-62
2022/03/24 00:30:08;;;;;;;8.43;5.35;;;2.00;76.80;1.70;98792.00;;;;4882356;28;92395;-62
2022/03/24 00:32:36;;;;;;;9.65;4.95;;;2.00;76.20;1.80;98780.00;;;;4867524;28;92571;-62
2022/03/24 00:35:02;;;;;;;8.52;4.80;;;2.00;76.10;1.80;98784.00;;;;4883066;28;92641;-62
2022/03/24 00:37:31;;;;;;;7.68;4.68;;;2.10;76.30;1.80;98776.00;;;;4883927;28;93422;-62
2022/03/24 00:40:00;;;;;;;9.55;4.55;;;2.10;75.70;1.80;98776.00;;;;4883850;28;92103;-63
2022/03/24 00:42:26;;;;;;;8.93;4.53;;;2.10;75.90;1.80;98776.00;;;;4865202;28;92267;-62
2022/03/24 00:44:57;;;;;;;6.95;4.80;;;2.10;75.80;1.70;98772.00;;;;4884347;28;94457;-63
2022/03/24 00:47:23;;;;;;;7.38;4.45;;;2.00;75.80;1.70;98768.00;;;;4896749;28;93282;-63
2022/03/24 00:49:49;;;;;;;8.38;5.25;;;2.00;76.10;1.70;98767.00;;;;4894409;28;92107;-62
2022/03/24 00:52:18;;;;;;;7.28;4.72;;;2.10;76.40;1.70;98767.00;;;;4882702;28;92389;-62
2022/03/24 00:54:44;;;;;;;9.40;4.75;;;2.10;76.10;1.80;98762.00;;;;4887997;28;93959;-63
2022/03/24 00:57:10;;;;;;;6.72;4.38;;;2.10;75.70;1.80;98759.00;;;;4886060;28;93554;-62
2022/03/24 00:59:37;;;;;;;6.93;4.32;;;2.10;75.50;1.90;98753.00;;;;4882463;28;92098;-62
2022/03/24 01:02:09;;;;;;;6.05;4.03;;;2.20;75.30;1.90;98760.00;;;;4880462;28;91355;-62
2022/03/24 01:04:37;;;;;;;9.02;4.75;;;2.20;75.20;1.90;98759.00;;;;4860803;28;92752;-62
2022/03/24 01:07:04;;;;;;;9.23;5.15;;;2.20;74.80;1.90;98750.00;;;;4880142;28;92541;-62
2022/03/24 01:09:31;;;;;;;6.75;4.60;;;2.20;75.10;1.90;98748.00;;;;4853215;28;93275;-62
2022/03/24 01:11:57;;;;;;;8.98;4.10;;;2.20;75.20;1.90;98754.00;;;;4891081;28;92088;-62
2022/03/24 01:14:25;;;;;;;6.95;4.20;;;2.20;74.50;2.00;98740.00;;;;4884882;28;92647;-62
2022/03/24 01:16:52;;;;;;;8.50;4.72;;;2.30;74.40;2.20;98748.00;;;;4851575;28;95021;-63
2022/03/24 01:19:18;;;;;;;7.75;4.20;;;2.50;74.00;2.30;98742.00;;;;4903357;28;92356;-62
2022/03/24 01:21:46;;;;;;;5.68;3.78;;;2.50;73.90;2.30;98738.00;;;;4865709;28;92146;-62
2022/03/24 01:24:12;;;;;;;6.25;4.13;;;2.60;73.50;2.40;98734.00;;;;4881872;28;93816;-63
2022/03/24 01:26:39;;;;;;;5.78;4.32;;;2.70;73.30;2.30;98735.00;;;;4900833;28;92252;-65
2022/03/24 01:29:05;;;;;;;7.53;4.47;;;2.60;73.40;2.30;98738.00;;;;4902409;28;91998;-65
2022/03/24 01:31:33;;;;;;;7.57;4.72;;;2.60;73.50;2.30;98731.00;;;;4883184;28;92215;-65
2022/03/24 01:33:59;;;;;;;8.48;4.40;;;2.60;74.00;2.30;98733.00;;;;4880245;28;94036;-65
2022/03/24 01:36:25;;;;;;;7.50;4.43;;;2.70;73.60;2.30;98733.00;;;;4886833;28;94381;-65
2022/03/24 01:38:52;;;;;;;5.13;3.92;;;2.60;73.60;2.30;98731.00;;;;4870379;28;92385;-65
2022/03/24 01:41:19;;;;;;;7.45;3.75;;;2.70;72.50;2.50;98732.00;;;;4853657;28;92270;-65
2022/03/24 01:43:46;;;;;;;5.85;3.95;;;2.90;72.10;2.60;98722.00;;;;4868767;28;92860;-65
2022/03/24 01:46:13;;;;;;;5.95;3.47;;;3.00;71.40;2.80;98728.00;;;;4890910;28;92363;-65
2022/03/24 01:48:42;;;;;;;7.57;4.10;;;3.10;71.30;2.80;98717.00;;;;4870077;28;92015;-65
2022/03/24 01:51:08;;;;;;;8.20;4.82;;;3.10;71.30;2.80;98718.00;;;;4901741;28;91841;-65
2022/03/24 01:53:34;;;;;;;8.38;4.18;;;3.20;71.20;2.80;98721.00;;;;4885446;28;92541;-65
2022/03/24 01:56:04;;;;;;;8.57;4.40;;;3.10;71.40;2.80;98720.00;;;;4868851;28;94740;-68
2022/03/24 01:58:32;;;;;;;6.63;3.88;;;3.00;71.60;2.70;98726.00;;;;4865191;28;93093;-68
2022/03/24 02:01:30;;;;;;;5.93;4.10;;;3.00;71.70;2.60;98721.00;;;;4890456;28;92345;-68
2022/03/24 02:03:57;;;;;;;6.32;3.97;;;3.00;71.90;2.70;98720.00;;;;4899822;28;93685;-68
2022/03/24 02:06:24;;;;;;;5.90;3.90;;;3.00;71.50;2.70;98719.00;;;;4882214;28;92371;-68
2022/03/24 02:08:50;;;;;;;7.18;3.67;;;3.10;71.10;2.80;98719.00;;;;4884851;28;92195;-68
2022/03/24 02:11:18;;;;;;;6.05;3.45;;;3.10;70.60;2.70;98707.00;;;;4875022;28;92146;-68
2022/03/24 02:13:45;;;;;;;5.32;3.42;;;3.10;70.50;2.70;98715.00;;;;4861044;28;92411;-68
2022/03/24 02:16:12;;;;;;;5.72;3.40;;;3.10;70.40;2.70;98702.00;;;;4883309;28;91433;-68
2022/03/24 02:18:38;;;;;;;5.75;3.30;;;3.10;70.60;2.80;98709.00;;;;4879999;28;93363;-68
2022/03/24 02:21:04;;;;;;;5.35;3.40;;;3.20;69.60;2.80;98702.00;;;;4902987;28;92103;-69
2022/03/24 02:23:30;;;;;;;5.82;3.50;;;3.20;69.60;2.80;98696.00;;;;4871041;28;93099;-68
2022/03/24 02:25:57;;;;;;;4.95;3.08;;;3.10;69.50;2.80;98702.00;;;;4884505;28;93367;-68
2022/03/24 02:28:24;;;;;;;6.78;3.40;;;3.20;69.60;2.80;98695.00;;;;4866037;28;92097;-68
2022/03/24 02:30:50;;;;;;;5.40;3.47;;;3.20;69.60;2.80;98703.00;;;;4890717;28;92062;-68
2022/03/24 02:33:21;;;;;;;4.55;2.97;;;3.20;69.60;2.80;98691.00;;;;4897686;28;92681;-69
2022/03/24 02:35:48;;;;;;;6.35;3.17;;;3.20;69.30;2.80;98689.00;;;;4893449;28;92585;-68
2022/03/24 02:38:15;;;;;;;4.88;3.25;;;3.20;69.20;2.80;98693.00;;;;4880017;28;91977;-68
2022/03/24 02:40:43;;;;;;;5.38;3.15;;;3.20;68.80;2.80;98684.00;;;;4880192;28;91809;-65
2022/03/24 02:43:09;;;;;;;5.13;2.88;;;3.20;68.50;2.90;98691.00;;;;4882868;28;93092;-64
2022/03/24 02:45:35;;;;;;;5.05;2.75;;;3.30;68.10;2.90;98679.00;;;;4886131;28;93507;-65
2022/03/24 02:48:03;;;;;;;4.97;2.90;;;3.30;67.90;2.90;98691.00;;;;4883563;28;93060;-65
2022/03/24 02:50:29;;;;;;;5.38;2.88;;;3.30;68.10;2.80;98672.00;;;;4897096;28;92268;-64
2022/03/24 02:52:56;;;;;;;6.43;3.35;;;3.30;68.30;2.90;98687.00;;;;4896830;28;92801;-65
2022/03/24 02:55:22;;;;;;;5.28;3.00;;;3.30;68.40;2.90;98680.00;;;;4861051;28;93605;-64
2022/03/24 02:57:48;;;;;;;5.82;3.50;;;3.30;68.20;2.90;98676.00;;;;4854111;29;92524;-65
2022/03/24 03:00:15;;;;;;;8.27;3.70;;;3.30;68.60;3.00;98684.00;;;;4888627;28;92708;-65
2022/03/24 03:02:41;;;;;;;7.50;3.55;;;3.40;68.70;3.00;98678.00;;;;4894116;28;92769;-65
2022/03/24 03:05:08;;;;;;;7.03;4.00;;;3.40;69.70;3.10;98672.00;;;;4881773;28;92203;-65
2022/03/24 03:07:34;;;;;;;8.90;3.90;;;3.40;69.80;3.10;98672.00;;;;4886765;28;92425;-65
2022/03/24 03:10:00;;;;;;;6.80;4.00;;;3.40;69.80;3.10;98671.00;;;;4895471;28;92163;-68
2022/03/24 03:12:27;;;;;;;6.57;4.40;;;3.50;70.00;3.20;98668.00;;;;4894863;28;93479;-68
2022/03/24 03:14:56;;;;;;;8.43;4.32;;;3.60;70.00;3.30;98680.00;;;;4891432;28;94239;-69
2022/03/24 03:17:22;;;;;;;9.30;5.03;;;3.60;69.50;3.30;98675.00;;;;4889955;28;92581;-68
2022/03/24 03:19:49;;;;;;;8.77;5.30;;;3.70;68.90;3.30;98671.00;;;;4888100;28;92886;-69
2022/03/24 03:22:16;;;;;;;9.73;6.20;;;3.70;68.40;3.30;98671.00;;;;4889174;28;93220;-68
2022/03/24 03:24:43;;;;;;;11.95;6.55;;;3.70;68.70;3.30;98670.00;;;;4880061;28;92589;-68
2022/03/24 03:27:09;;;;;;;10.65;7.28;;;3.70;68.50;3.30;98663.00;;;;4889620;28;92066;-69
2022/03/24 03:29:35;;;;;;;11.88;5.68;;;3.70;69.10;3.40;98658.00;;;;4899763;28;91890;-69
2022/03/24 03:32:02;;;;;;;8.38;5.03;;;3.70;69.70;3.70;98658.00;;;;4890620;28;92855;-69
2022/03/24 03:34:29;;;;;;;7.32;4.30;;;3.90;68.90;4.00;98662.00;;;;4888662;28;92208;-68
2022/03/24 03:36:56;;;;;;;10.40;4.53;;;4.10;68.30;4.20;98651.00;;;;4884026;28;92967;-68
2022/03/24 03:39:24;;;;;;;9.77;5.10;;;4.30;67.90;4.50;98657.00;;;;4887448;28;92003;-68
2022/03/24 03:41:50;;;;;;;9.13;5.18;;;4.50;67.70;4.60;98655.00;;;;4870175;28;92585;-68
2022/03/24 03:44:17;;;;;;;11.43;5.60;;;4.60;68.20;4.80;98653.00;;;;4886173;28;92446;-68
2022/03/24 03:46:44;;;;;;;8.63;4.70;;;4.70;68.10;5.10;98656.00;;;;4890422;28;91932;-68
2022/03/24 03:49:10;;;;;;;10.23;4.72;;;4.90;65.70;5.40;98647.00;;;;4885125;28;92093;-68
2022/03/24 03:51:37;;;;;;;7.10;4.20;;;5.20;64.50;5.80;98658.00;;;;4881750;28;93739;-68
2022/03/24 03:54:07;;;;;;;9.77;4.50;;;5.40;63.40;6.00;98645.00;;;;4896776;28;93374;-69
2022/03/24 03:56:36;;;;;;;7.05;4.18;;;5.70;62.90;6.30;98640.00;;;;4883494;28;92444;-69
2022/03/24 03:59:03;;;;;;;7.88;4.75;;;5.80;61.80;6.50;98645.00;;;;4863951;28;92190;-68
2022/03/24 04:01:30;;;;;;;10.52;5.43;;;6.00;61.90;6.60;98646.00;;;;4893442;28;93661;-69
2022/03/24 04:03:57;;;;;;;12.13;5.70;;;6.10;61.60;6.70;98652.00;;;;4882427;28;94415;-69
2022/03/24 04:06:24;;;;;;;14.23;6.13;;;6.10;63.40;6.70;98644.00;;;;4864485;28;92053;-69
2022/03/24 04:08:51;;;;;;;18.25;6.50;;;6.10;63.50;6.70;98641.00;;;;4891409;28;92059;-69
2022/03/24 04:11:17;;;;;;;17.05;7.45;;;6.10;63.60;6.70;98638.00;;;;4889276;28;92952;-68
2022/03/24 04:13:46;;;;;;;17.30;7.95;;;6.10;65.00;6.70;98637.00;;;;4890549;28;92596;-68
2022/03/24 04:16:13;;;;;;;23.65;8.30;;;6.10;65.10;6.90;98632.00;;;;4900289;28;92458;-69
2022/03/24 04:18:41;;;;;;;21.27;8.75;;;6.10;65.00;6.90;98630.00;;;;4894886;28;91581;-69
2022/03/24 04:21:08;;;;;;;23.05;9.75;;;6.20;64.50;6.80;98631.00;;;;4900694;28;92581;-69
2022/03/24 04:23:40;;;;;;;23.13;9.80;;;6.20;64.60;7.00;98626.00;;;;4874799;28;93482;-68
2022/03/24 04:26:07;;;;;;;25.42;10.73;;;6.30;64.60;7.00;98636.00;;;;4869244;28;93497;-68
2022/03/24 04:28:34;;;;;;;26.50;9.95;;;6.30;64.10;7.10;98633.00;;;;4886215;28;92113;-68
2022/03/24 04:31:00;;;;;;;21.55;8.63;;;6.30;64.00;7.20;98643.00;;;;4892799;28;93289;-68
2022/03/24 04:33:26;;;;;;;24.48;10.30;;;6.40;63.10;7.40;98633.00;;;;4881105;28;93272;-68
2022/03/24 04:35:52;;;;;;;24.90;10.55;;;6.60;61.80;7.60;98623.00;;;;4888012;28;92145;-68
2022/03/24 04:38:19;;;;;;;17.88;8.13;;;6.70;61.80;7.90;98641.00;;;;4884870;28;91899;-69
2022/03/24 04:40:45;;;;;;;19.63;7.88;;;6.90;61.10;8.10;98644.00;;;;4872024;28;93209;-69
2022/03/24 04:43:11;;;;;;;14.90;6.63;;;6.90;61.50;8.10;98631.00;;;;4885075;28;93431;-69
2022/03/24 04:45:37;;;;;;;16.00;6.88;;;7.00;61.90;8.10;98634.00;;;;4881965;28;92493;-69
2022/03/24 04:48:04;;;;;;;16.98;7.80;;;7.00;62.10;8.00;98636.00;;;;4899195;28;92570;-69
2022/03/24 04:50:31;;;;;;;20.13;7.60;;;6.90;62.20;7.90;98638.00;;;;4879484;28;94947;-68
2022/03/24 04:52:57;;;;;;;19.38;7.95;;;6.90;63.00;7.60;98630.00;;;;4876549;28;93419;-69
2022/03/24 04:55:24;;;;;;;21.42;9.10;;;6.70;64.60;7.50;98634.00;;;;4895572;28;92323;-68
2022/03/24 04:57:50;;;;;;;14.75;7.65;;;6.60;65.50;7.30;98631.00;;;;4878513;28;92551;-69
2022/03/24 05:00:18;;;;;;;20.25;8.55;;;6.50;64.30;7.30;98631.00;;;;4887322;28;92626;-69
2022/03/24 05:02:46;;;;;;;18.58;8.52;;;6.50;65.40;7.00;98637.00;;;;4892852;28;93407;-69
2022/03/24 05:05:13;;;;;;;24.48;8.98;;;6.30;66.30;6.80;98638.00;;;;4896563;28;92373;-70
2022/03/24 05:07:40;;;;;;;18.95;9.00;;;6.20;66.50;6.50;98636.00;;;;4884044;28;91327;-69
2022/03/24 05:10:09;;;;;;;21.10;8.38;;;6.00;66.90;6.10;98634.00;;;;4895837;28;94063;-68
2022/03/24 05:12:39;;;;;;;20.13;8.48;;;5.90;67.30;5.90;98626.00;;;;4885811;28;92400;-69
2022/03/24 05:15:09;;;;;;;20.42;8.73;;;5.90;67.70;5.70;98638.00;;;;4898914;28;93110;-68
2022/03/24 05:17:36;;;;;;;19.05;9.45;;;5.70;67.70;5.40;98631.00;;;;4883236;28;92313;-70
2022/03/24 05:20:03;;;;;;;21.95;9.80;;;5.60;69.10;5.30;98632.00;;;;4902651;28;92721;-69
2022/03/24 05:22:29;;;;;;;21.85;9.73;;;5.40;69.30;5.10;98629.00;;;;4893634;28;91990;-69
2022/03/24 05:24:55;;;;;;;25.58;10.48;;;5.30;69.70;5.10;98622.00;;;;4880416;28;92466;-69
2022/03/24 05:27:22;;;;;;;23.83;9.73;;;5.30;70.30;5.00;98633.00;;;;4901194;28;92286;-70
2022/03/24 05:29:49;;;;;;;23.45;9.88;;;5.30;70.40;5.00;98638.00;;;;4890024;28;92887;-69
2022/03/24 05:32:15;;;;;;;18.38;9.55;;;5.30;70.50;5.00;98630.00;;;;4865175;28;92360;-69
2022/03/24 05:34:41;;;;;;;20.63;9.23;;;5.30;70.50;5.10;98618.00;;;;4894098;28;92144;-69
2022/03/24 05:37:07;;;;;;;18.50;9.88;;;5.40;70.30;5.10;98627.00;;;;4899260;28;92173;-70
2022/03/24 05:39:34;;;;;;;18.70;9.30;;;5.40;69.70;5.20;98628.00;;;;4894537;28;94702;-68
2022/03/24 05:42:02;;;;;;;18.73;8.63;;;5.40;69.40;5.20;98632.00;;;;4866289;28;95724;-69
2022/03/24 05:44:30;;;;;;;22.15;9.55;;;5.50;68.20;5.30;98644.00;;;;4854983;28;92203;-69
2022/03/24 05:46:57;;;;;;;22.00;10.98;;;5.60;69.10;5.40;98641.00;;;;4891895;28;92035;-70
2022/03/24 05:49:24;;;;;;;23.73;10.57;;;5.70;69.60;5.40;98636.00;;;;4879250;28;92405;-69
2022/03/24 05:52:09;;;;;;;24.20;10.23;;;5.70;69.90;5.50;98643.00;;;;4875758;28;92251;-69
2022/03/24 05:54:35;;;;;;;21.02;10.30;;;5.80;69.70;5.60;98638.00;;;;4891294;28;92116;-68
2022/03/24 05:57:02;;;;;;;23.58;10.20;;;5.80;68.90;5.60;98627.00;;;;4893245;28;91719;-69
2022/03/24 05:59:28;;;;;;;22.17;10.40;;;5.90;68.90;5.70;98642.00;;;;4896450;28;92759;-69
2022/03/24 06:01:54;;;;;;;26.50;11.75;;;5.90;69.00;5.70;98642.00;;;;4894929;28;92933;-68
2022/03/24 06:04:23;;;;;;;21.52;10.63;;;6.00;69.40;5.80;98651.00;;;;4882967;28;93090;-68
2022/03/24 06:06:56;;;;;;;23.23;10.90;;;6.00;69.40;5.80;98644.00;;;;4851687;28;92095;-71
2022/03/24 06:09:22;;;;;;;27.48;10.73;;;6.10;69.10;5.90;98650.00;;;;4887527;28;92703;-70
2022/03/24 06:11:49;;;;;;;23.30;9.90;;;6.20;69.60;6.00;98651.00;;;;4875796;28;92375;-70
2022/03/24 06:14:16;;;;;;;27.33;10.05;;;6.30;69.00;6.10;98645.00;;;;4879165;28;92051;-68
2022/03/24 06:16:42;;;;;;;23.20;10.20;;;6.40;68.20;6.20;98662.00;;;;4883680;28;92270;-70
2022/03/24 06:19:09;;;;;;;23.08;10.57;;;6.50;68.80;6.30;98646.00;;;;4881026;28;93237;-70
2022/03/24 06:21:38;;;;;;;22.95;11.05;;;6.50;68.60;6.30;98657.00;;;;4883013;28;92532;-70
2022/03/24 06:24:07;;;;;;;24.23;11.20;;;6.60;68.50;6.40;98652.00;;;;4873449;28;92073;-71
2022/03/24 06:26:33;;;;;;;21.67;9.73;;;6.60;69.20;6.50;98659.00;;;;4892853;28;92746;-69
2022/03/24 06:29:01;;;;;;;23.92;10.38;;;6.70;68.60;6.50;98656.00;;;;4889114;28;93794;-68
2022/03/24 06:31:27;;;;;;;23.88;9.70;;;6.80;67.70;6.60;98674.00;;;;4890800;28;94650;-68
2022/03/24 06:33:53;;;;;;;25.80;10.95;;;6.90;67.70;6.70;98665.00;;;;4884020;28;92340;-68
2022/03/24 06:36:20;;;;;;;26.73;11.52;;;6.90;67.20;6.80;98666.00;;;;4883814;28;92964;-69
2022/03/24 06:38:46;;;;;;;31.85;11.35;;;7.00;66.60;6.80;98656.00;;;;4866516;28;92584;-69
2022/03/24 06:41:14;;;;;;;23.40;12.27;;;7.00;67.20;6.90;98658.00;;;;4884874;28;92570;-67
2022/03/24 06:43:42;;;;;;;31.92;12.07;;;7.10;68.70;6.90;98656.00;;;;4881433;28;92543;-69
2022/03/24 06:46:09;;;;;;;28.10;10.90;;;7.20;68.00;7.00;98663.00;;;;4883971;28;91409;-68
2022/03/24 06:48:36;;;;;;;24.85;11.40;;;7.30;67.50;7.10;98665.00;;;;4865954;28;92829;-70
2022/03/24 06:51:03;;;;;;;31.52;12.50;;;7.30;67.20;7.10;98662.00;;;;4882834;28;92419;-71
2022/03/24 06:53:29;;;;;;;26.13;11.45;;;7.40;67.30;7.10;98667.00;;;;4864852;28;93048;-70
2022/03/24 06:55:55;;;;;;;35.15;11.85;;;7.40;67.20;7.20;98671.00;;;;4866094;28;92071;-70
2022/03/24 06:58:22;;;;;;;28.02;12.07;;;7.40;66.30;7.20;98666.00;;;;4830356;29;93968;-69
2022/03/24 07:00:48;;;;;;;38.05;12.68;;;7.40;66.50;7.30;98670.00;;;;4865382;28;92812;-69
2022/03/24 07:03:15;;;;;;;26.70;11.65;;;7.50;67.20;7.30;98666.00;;;;4844837;29;92816;-68
2022/03/24 07:05:41;;;;;;;29.30;11.98;;;7.60;67.30;7.40;98680.00;;;;4867653;28;92260;-69
2022/03/24 07:08:08;;;;;;;33.35;12.40;;;7.60;66.60;7.40;98675.00;;;;4863477;28;92473;-69
2022/03/24 07:10:34;;;;;;;27.73;12.38;;;7.60;67.10;7.30;98663.00;;;;4827802;29;93732;-68
2022/03/24 07:13:00;;;;;;;33.25;12.95;;;7.50;68.10;7.30;98665.00;;;;4827791;28;92157;-70
2022/03/24 07:15:27;;;;;;;27.65;13.02;;;7.50;67.60;7.40;98681.00;;;;4850238;29;93344;-65
2022/03/24 07:17:53;;;;;;;33.50;12.63;;;7.50;68.30;7.50;98669.00;;;;4846027;28;96789;-65
2022/03/24 07:20:19;;;;;;;40.55;13.40;;;7.60;66.00;7.50;98671.00;;;;4861263;29;93299;-63
2022/03/24 07:22:46;;;;;;;35.67;13.05;;;7.70;67.10;7.50;98665.00;;;;4846017;28;92754;-63
2022/03/24 07:25:13;;;;;;;28.17;11.80;;;7.70;67.20;7.60;98666.00;;;;4847405;29;92089;-63
2022/03/24 07:27:42;;;;;;;27.50;10.90;;;7.80;65.70;7.70;98668.00;;;;4846354;29;92797;-64
2022/03/24 07:30:10;;;;;;;31.92;11.40;;;7.90;64.10;7.90;98682.00;;;;4864451;28;94017;-63
2022/03/24 07:32:37;;;;;;;33.83;12.73;;;8.00;64.50;7.90;98673.00;;;;4845815;28;91968;-62
2022/03/24 07:35:05;;;;;;;31.83;12.07;;;8.10;64.30;8.00;98675.00;;;;4845509;28;91594;-61
2022/03/24 07:37:31;;;;;;;25.05;11.52;;;8.10;65.60;8.00;98679.00;;;;4863625;28;92687;-61
2022/03/24 07:39:58;;;;;;;38.05;12.30;;;8.20;64.40;8.00;98689.00;;;;4866549;28;93970;-62
2022/03/24 07:42:25;;;;;;;30.35;11.25;;;8.20;64.20;8.10;98683.00;;;;4837833;29;93394;-62
2022/03/24 07:44:51;;;;;;;25.38;10.45;;;8.30;63.40;8.20;98683.00;;;;4865314;28;92317;-62
2022/03/24 07:47:17;;;;;;;22.42;8.98;;;8.30;61.80;8.30;98676.00;;;;4862259;28;92884;-62
2022/03/24 07:49:43;;;;;;;24.25;10.45;;;8.40;60.60;8.30;98679.00;;;;4864128;28;93038;-62
2022/03/24 07:52:13;;;;;;;33.03;9.20;;;8.50;62.00;8.40;98674.00;;;;4887637;28;92067;-62
2022/03/24 07:55:05;;;;;;;13.63;7.45;;;8.60;60.70;8.40;98673.00;;;;4892155;28;92053;-63
2022/03/24 07:57:31;;;;;;;17.60;8.32;;;8.60;59.20;8.50;98689.00;;;;4891463;28;92698;-65
2022/03/24 07:59:59;;;;;;;17.02;7.63;;;8.70;58.70;8.60;98684.00;;;;4893655;28;92264;-63
2022/03/24 08:02:26;;;;;;;16.75;6.18;;;8.70;57.60;8.60;98673.00;;;;4892060;28;92255;-63
2022/03/24 08:04:53;;;;;;;13.93;7.22;;;8.70;55.80;8.60;98673.00;;;;4898052;28;92116;-63
2022/03/24 08:07:21;;;;;;;13.15;5.85;;;8.80;57.10;8.60;98676.00;;;;4879293;28;93520;-63
2022/03/24 08:09:48;;;;;;;16.75;6.20;;;8.80;54.00;8.60;98676.00;;;;4880298;28;93258;-61
2022/03/24 08:12:14;;;;;;;13.10;5.28;;;8.80;54.40;8.70;98678.00;;;;4887005;28;92579;-65
2022/03/24 08:14:41;;;;;;;15.00;5.82;;;8.80;51.70;8.70;98666.00;;;;4885055;28;92420;-64
2022/03/24 08:17:07;;;;;;;12.90;5.07;;;8.90;52.80;8.70;98667.00;;;;4885803;28;92731;-65
2022/03/24 08:19:34;;;;;;;12.82;5.75;;;8.80;51.20;8.70;98674.00;;;;4884494;28;92174;-61
2022/03/24 08:22:00;;;;;;;13.70;5.45;;;8.80;52.40;8.70;98681.00;;;;4877084;28;92518;-63
2022/03/24 08:24:27;;;;;;;13.02;5.38;;;8.90;53.30;8.80;98672.00;;;;4881114;28;91617;-63
2022/03/24 08:26:53;;;;;;;10.90;5.20;;;8.90;54.50;8.80;98674.00;;;;4896439;28;92604;-62
2022/03/24 08:29:19;;;;;;;16.60;6.20;;;9.00;53.60;8.90;98671.00;;;;4873003;28;92433;-62
2022/03/24 08:31:47;;;;;;;13.93;5.70;;;9.00;53.10;8.80;98676.00;;;;4886046;28;93071;-61
2022/03/24 08:34:14;;;;;;;11.68;5.28;;;8.90;52.60;8.90;98676.00;;;;4886356;28;92585;-61
2022/03/24 08:36:40;;;;;;;15.32;6.20;;;9.00;52.10;8.90;98674.00;;;;4884392;28;94754;-61
2022/03/24 08:39:06;;;;;;;16.02;6.03;;;9.00;52.50;9.00;98669.00;;;;4884887;28;93407;-62
2022/03/24 08:41:32;;;;;;;11.98;5.20;;;9.10;51.40;9.00;98669.00;;;;4883814;28;92346;-62
2022/03/24 08:43:58;;;;;;;12.30;5.40;;;9.10;49.90;9.00;98664.00;;;;4884232;28;92072;-62
2022/03/24 08:46:25;;;;;;;15.45;5.68;;;9.10;50.60;9.10;98668.00;;;;4883250;28;92765;-62
2022/03/24 08:48:53;;;;;;;12.45;5.05;;;9.20;50.30;9.10;98673.00;;;;4882611;28;93496;-62
2022/03/24 08:51:19;;;;;;;8.27;4.72;;;9.20;48.40;9.10;98671.00;;;;4889579;28;92073;-62
2022/03/24 08:53:47;;;;;;;7.25;4.20;;;9.10;46.60;9.00;98672.00;;;;4895064;28;92590;-69
2022/03/24 08:56:14;;;;;;;11.43;4.20;;;9.10;45.40;9.10;98679.00;;;;4868757;28;94163;-68
2022/03/24 08:58:40;;;;;;;8.48;4.90;;;9.10;45.40;9.10;98676.00;;;;4884236;28;93347;-68
2022/03/24 09:01:06;;;;;;;12.30;6.13;;;9.20;48.40;9.20;98669.00;;;;4884309;28;92270;-68
2022/03/24 09:03:33;;;;;;;9.18;5.28;;;9.30;48.00;9.20;98670.00;;;;4888724;28;92301;-69
2022/03/24 09:05:59;;;;;;;9.25;4.95;;;9.30;47.40;9.20;98679.00;;;;4887162;28;92541;-69
2022/03/24 09:08:25;;;;;;;9.82;4.50;;;9.40;47.40;9.20;98662.00;;;;4882800;28;92473;-69
2022/03/24 09:10:51;;;;;;;10.18;4.20;;;9.30;45.40;9.20;98668.00;;;;4884598;28;92704;-69
2022/03/24 09:13:17;;;;;;;13.55;4.75;;;9.30;45.40;9.20;98667.00;;;;4887307;28;91572;-69
2022/03/24 09:15:45;;;;;;;9.05;4.15;;;9.30;45.40;9.20;98665.00;;;;4881668;28;92739;-69
2022/03/24 09:18:12;;;;;;;9.32;4.20;;;9.30;45.40;9.30;98667.00;;;;4883932;28;92581;-69
2022/03/24 09:20:38;;;;;;;13.45;4.82;;;9.40;44.80;9.30;98685.00;;;;4878455;28;93653;-69
2022/03/24 09:23:04;;;;;;;6.93;3.75;;;9.40;45.50;9.30;98665.00;;;;4879067;28;92389;-70
2022/03/24 09:25:33;;;;;;;10.50;3.97;;;9.40;42.50;9.30;98670.00;;;;4887987;28;92635;-70
2022/03/24 09:27:59;;;;;;;8.55;3.60;;;9.40;42.50;9.40;98663.00;;;;4888775;28;92236;-70
2022/03/24 09:30:25;;;;;;;9.27;3.25;;;9.50;42.80;9.40;98677.00;;;;4881210;28;92313;-69
2022/03/24 09:32:52;;;;;;;8.48;3.90;;;9.50;41.90;9.40;98669.00;;;;4886801;28;92528;-69
2022/03/24 09:35:18;;;;;;;9.35;4.38;;;9.50;42.20;9.40;98666.00;;;;4880776;28;93929;-69
2022/03/24 09:37:45;;;;;;;7.68;3.65;;;9.50;42.80;9.30;98671.00;;;;4896353;28;94234;-69
2022/03/24 09:40:13;;;;;;;8.18;4.28;;;9.40;43.50;9.30;98670.00;;;;4895194;28;92541;-69
2022/03/24 09:42:39;;;;;;;9.75;3.67;;;9.40;42.60;9.40;98668.00;;;;4896969;28;92187;-69
2022/03/24 09:45:09;;;;;;;9.98;4.18;;;9.50;43.50;9.50;98661.00;;;;4884656;28;93543;-70
2022/03/24 09:47:35;;;;;;;11.95;3.75;;;9.60;42.70;9.50;98668.00;;;;4884501;28;93675;-69
2022/03/24 09:50:04;;;;;;;11.68;4.57;;;9.60;42.90;9.50;98675.00;;;;4881258;28;92438;-69
2022/03/24 09:52:30;;;;;;;9.63;3.60;;;9.60;44.50;9.60;98659.00;;;;4885817;28;92327;-70
2022/03/24 09:54:57;;;;;;;10.27;3.97;;;9.60;42.30;9.60;98663.00;;;;4893042;28;93782;-70
2022/03/24 09:57:23;;;;;;;6.68;3.75;;;9.70;42.80;9.70;98671.00;;;;4888469;28;93078;-70
2022/03/24 09:59:50;;;;;;;9.90;4.10;;;9.80;43.00;9.70;98657.00;;;;4894964;28;92447;-70
2022/03/24 10:02:16;;;;;;;11.30;4.38;;;9.70;42.40;9.70;98655.00;;;;4886556;28;91318;-70
2022/03/24 10:05:04;;;;;;;11.38;4.70;;;9.70;42.50;9.60;98668.00;;;;4896925;28;92626;-69
2022/03/24 10:07:43;;;;;;;8.10;4.50;;;9.70;42.60;9.50;98656.00;;;;4881152;28;94038;-69
2022/03/24 10:10:22;;;;;;;6.78;3.83;;;9.60;42.50;9.60;98665.00;;;;4886484;28;93633;-69
2022/03/24 10:12:48;;;;;;;7.45;3.92;;;9.60;43.30;9.60;98664.00;;;;4890153;28;91992;-70
2022/03/24 10:15:16;;;;;;;7.95;3.40;;;9.60;41.90;9.60;98674.00;;;;4891040;28;92843;-69
2022/03/24 10:17:55;;;;;;;6.88;3.50;;;9.60;41.60;9.60;98656.00;;;;4896565;28;93499;-69
2022/03/24 10:20:23;;;;;;;7.97;3.80;;;9.60;42.10;9.70;98660.00;;;;4900744;28;92737;-70
2022/03/24 10:23:00;;;;;;;8.68;4.00;;;9.70;41.90;9.70;98666.00;;;;4888499;28;92626;-69
2022/03/24 10:25:35;;;;;;;8.50;4.40;;;9.80;41.20;9.80;98670.00;;;;4885657;28;92477;-69
2022/03/24 10:28:18;;;;;;;7.10;4.30;;;9.90;41.60;9.80;98666.00;;;;4874666;28;92795;-69
2022/03/24 10:30:58;;;;;;;8.50;4.05;;;9.90;40.80;9.80;98664.00;;;;4882885;28;92230;-69
2022/03/24 10:33:36;;;;;;;6.97;4.30;;;9.90;41.30;9.90;98672.00;;;;4884022;28;92002;-69
2022/03/24 10:36:12;;;;;;;8.45;4.00;;;9.90;41.80;10.00;98681.00;;;;4895234;28;93848;-68
2022/03/24 10:38:46;;;;;;;7.88;3.90;;;10.00;41.10;9.90;98682.00;;;;4891965;28;93687;-68
2022/03/24 10:41:30;;;;;;;8.68;3.90;;;9.90;41.60;9.90;98677.00;;;;4856320;28;92572;-68
2022/03/24 10:44:05;;;;;;;8.43;4.45;;;10.00;40.50;9.90;98662.00;;;;4881393;28;92027;-69
2022/03/24 10:46:35;;;;;;;9.27;4.40;;;9.90;40.60;9.90;98671.00;;;;4881320;28;92688;-69
2022/03/24 10:49:23;;;;;;;9.90;4.35;;;9.90;40.80;9.90;98668.00;;;;4880045;28;92425;-69
2022/03/24 10:51:51;;;;;;;7.43;4.70;;;9.90;41.40;9.90;98677.00;;;;4885712;28;92518;-69
2022/03/24 10:54:49;;;;;;;6.65;3.78;;;9.90;41.30;9.90;98670.00;;;;4887676;28;91332;-69
2022/03/24 10:57:19;;;;;;;9.07;4.00;;;9.90;41.50;9.90;98671.00;;;;4877815;28;92595;-69
2022/03/24 10:59:48;;;;;;;6.93;3.75;;;9.90;42.50;9.90;98670.00;;;;4882128;28;92824;-69
2022/03/24 11:02:15;;;;;;;5.97;3.70;;;9.90;44.00;9.90;98671.00;;;;4858796;28;93378;-69
2022/03/24 11:04:43;;;;;;;8.18;4.05;;;10.00;41.30;10.00;98673.00;;;;4884671;28;92305;-69
2022/03/24 11:07:09;;;;;;;12.68;4.00;;;10.00;40.40;10.10;98665.00;;;;4896124;28;93885;-69